createdAt,value
2017-12-29T00:00:13.923Z,0
2017-12-29T00:01:24.074Z,0
2017-12-29T00:02:34.454Z,0
2017-12-29T00:03:44.334Z,0
2017-12-29T00:04:54.447Z,0
2017-12-29T00:06:04.640Z,0
2017-12-29T00:07:15.944Z,0
2017-12-29T00:08:26.130Z,0
2017-12-29T00:09:36.289Z,0
2017-12-29T00:10:46.490Z,0
2017-12-29T00:11:56.692Z,0
2017-12-29T00:13:06.814Z,0
2017-12-29T00:14:16.968Z,0
2017-12-29T00:15:27.120Z,0
2017-12-29T00:16:37.239Z,0
2017-12-29T00:17:47.378Z,0
2017-12-29T00:18:57.245Z,0
2017-12-29T00:20:07.369Z,0
2017-12-29T00:21:17.522Z,0
2017-12-29T00:22:27.740Z,0
2017-12-29T00:23:37.906Z,0
2017-12-29T00:24:48.136Z,0
2017-12-29T00:25:58.006Z,0
2017-12-29T00:27:08.109Z,0
2017-12-29T00:28:18.206Z,0
2017-12-29T00:29:28.338Z,0
2017-12-29T00:30:38.206Z,0
2017-12-29T00:31:48.354Z,0
2017-12-29T00:32:58.456Z,0
2017-12-29T00:34:08.568Z,0
2017-12-29T00:35:18.178Z,0
2017-12-29T00:36:28.419Z,0
2017-12-29T00:37:38.698Z,0
2017-12-29T00:38:48.841Z,0
2017-12-29T00:39:59.922Z,0
2017-12-29T00:41:10.039Z,0
2017-12-29T00:42:20.187Z,0
2017-12-29T00:43:30.312Z,0
2017-12-29T00:44:40.437Z,0
2017-12-29T00:45:50.547Z,0
2017-12-29T00:47:00.692Z,0
2017-12-29T00:48:10.623Z,0
2017-12-29T00:49:20.748Z,0
2017-12-29T00:50:30.843Z,0
2017-12-29T00:51:40.944Z,0
2017-12-29T00:52:51.079Z,0
2017-12-29T00:54:01.224Z,0
2017-12-29T00:55:11.632Z,0
2017-12-29T00:56:21.762Z,0
2017-12-29T00:57:31.949Z,0
2017-12-29T00:58:41.827Z,0
2017-12-29T00:59:51.969Z,0
2017-12-29T01:01:02.168Z,0
2017-12-29T01:02:12.383Z,0
2017-12-29T01:03:22.602Z,0
2017-12-29T01:04:32.830Z,0
2017-12-29T01:05:42.750Z,0
2017-12-29T01:06:52.878Z,0
2017-12-29T01:08:03.038Z,0
2017-12-29T01:09:13.166Z,0
2017-12-29T01:10:23.380Z,0
2017-12-29T01:11:33.491Z,0
2017-12-29T01:12:43.386Z,0
2017-12-29T01:13:53.191Z,0
2017-12-29T01:15:03.374Z,0
2017-12-29T01:16:13.505Z,0
2017-12-29T01:17:23.477Z,0
2017-12-29T01:18:33.604Z,0
2017-12-29T01:19:43.736Z,0
2017-12-29T01:20:53.936Z,0
2017-12-29T01:22:04.215Z,0
2017-12-29T01:23:14.425Z,0
2017-12-29T01:24:24.570Z,0
2017-12-29T01:25:34.707Z,0
2017-12-29T01:26:44.826Z,0
2017-12-29T01:27:54.950Z,0
2017-12-29T01:29:05.053Z,0
2017-12-29T01:30:15.199Z,0
2017-12-29T01:31:25.322Z,0
2017-12-29T01:32:35.426Z,0
2017-12-29T01:33:45.410Z,0
2017-12-29T01:34:55.548Z,0
2017-12-29T01:36:05.402Z,0
2017-12-29T01:37:15.144Z,0
2017-12-29T01:38:25.284Z,0
2017-12-29T01:39:35.546Z,0
2017-12-29T01:40:45.399Z,0
2017-12-29T01:41:55.527Z,0
2017-12-29T01:43:05.688Z,0
2017-12-29T01:44:15.563Z,0
2017-12-29T01:45:25.257Z,0
2017-12-29T01:46:35.210Z,0
2017-12-29T01:47:45.340Z,0
2017-12-29T01:48:55.487Z,0
2017-12-29T01:50:05.587Z,0
2017-12-29T01:51:15.568Z,0
2017-12-29T01:52:25.609Z,0
2017-12-29T01:53:35.758Z,0
2017-12-29T01:54:45.640Z,0
2017-12-29T01:55:55.804Z,0
2017-12-29T01:57:05.930Z,0
2017-12-29T01:58:16.285Z,0
2017-12-29T01:59:26.147Z,0
2017-12-29T02:00:36.253Z,0
2017-12-29T02:01:46.385Z,0
2017-12-29T02:02:56.565Z,0
2017-12-29T02:04:06.712Z,0
2017-12-29T02:05:16.935Z,0
2017-12-29T02:06:27.036Z,0
2017-12-29T02:07:37.148Z,0
2017-12-29T02:08:47.354Z,0
2017-12-29T02:09:57.191Z,0
2017-12-29T02:11:07.297Z,0
2017-12-29T02:12:17.435Z,0
2017-12-29T02:13:27.591Z,0
2017-12-29T02:14:37.188Z,0
2017-12-29T02:15:47.293Z,0
2017-12-29T02:16:57.450Z,0
2017-12-29T02:18:07.640Z,0
2017-12-29T02:19:17.492Z,0
2017-12-29T02:20:27.587Z,0
2017-12-29T02:21:37.719Z,0
2017-12-29T02:22:47.553Z,0
2017-12-29T02:23:58.390Z,0
2017-12-29T02:25:08.503Z,0
2017-12-29T02:26:18.658Z,0
2017-12-29T02:27:28.789Z,0
2017-12-29T02:28:38.936Z,0
2017-12-29T02:29:49.052Z,0
2017-12-29T02:30:59.040Z,0
2017-12-29T02:32:08.877Z,0
2017-12-29T02:33:18.976Z,0
2017-12-29T02:34:29.140Z,0
2017-12-29T02:35:39.409Z,0
2017-12-29T02:36:49.565Z,0
2017-12-29T02:37:59.189Z,0
2017-12-29T02:39:09.286Z,0
2017-12-29T02:40:19.377Z,0
2017-12-29T02:41:29.497Z,0
2017-12-29T02:42:40.306Z,0
2017-12-29T02:43:50.438Z,0
2017-12-29T02:45:00.623Z,0
2017-12-29T02:46:10.932Z,0
2017-12-29T02:47:21.089Z,0
2017-12-29T02:48:31.214Z,0
2017-12-29T02:49:41.106Z,0
2017-12-29T02:50:51.264Z,0
2017-12-29T02:52:01.281Z,0
2017-12-29T02:53:11.384Z,0
2017-12-29T02:54:21.241Z,0
2017-12-29T02:55:31.336Z,0
2017-12-29T02:56:41.478Z,0
2017-12-29T02:57:51.614Z,0
2017-12-29T02:59:01.842Z,0
2017-12-29T03:00:13.051Z,0
2017-12-29T03:01:22.900Z,0
2017-12-29T03:02:33.012Z,0
2017-12-29T03:03:43.150Z,0
2017-12-29T03:04:53.274Z,0
2017-12-29T03:06:03.360Z,0
2017-12-29T03:07:13.470Z,0
2017-12-29T03:08:23.607Z,0
2017-12-29T03:09:32.893Z,0
2017-12-29T03:10:43.139Z,0
2017-12-29T03:11:53.302Z,0
2017-12-29T03:13:03.710Z,0
2017-12-29T03:14:13.828Z,0
2017-12-29T03:15:23.701Z,0
2017-12-29T03:16:33.808Z,0
2017-12-29T03:17:43.955Z,0
2017-12-29T03:18:54.130Z,0
2017-12-29T03:20:04.228Z,0
2017-12-29T03:21:14.335Z,0
2017-12-29T03:22:24.466Z,0
2017-12-29T03:23:34.635Z,0
2017-12-29T03:24:44.786Z,0
2017-12-29T03:25:55.034Z,0
2017-12-29T03:27:05.206Z,0
2017-12-29T03:28:15.414Z,0
2017-12-29T03:29:25.298Z,0
2017-12-29T03:30:34.884Z,0
2017-12-29T03:31:45.131Z,0
2017-12-29T03:32:55.087Z,0
2017-12-29T03:34:05.195Z,0
2017-12-29T03:35:15.324Z,0
2017-12-29T03:36:25.574Z,0
2017-12-29T03:37:35.754Z,0
2017-12-29T03:38:45.980Z,0
2017-12-29T03:39:55.833Z,0
2017-12-29T03:41:06.077Z,0
2017-12-29T03:42:16.203Z,0
2017-12-29T03:43:26.432Z,0
2017-12-29T03:44:36.598Z,0
2017-12-29T03:45:46.709Z,0
2017-12-29T03:46:56.822Z,0
2017-12-29T03:48:06.933Z,0
2017-12-29T03:49:17.049Z,0
2017-12-29T03:50:27.191Z,0
2017-12-29T03:51:37.461Z,0
2017-12-29T03:52:47.602Z,0
2017-12-29T03:53:57.700Z,0
2017-12-29T03:55:07.849Z,0
2017-12-29T03:56:17.990Z,0
2017-12-29T03:57:28.143Z,0
2017-12-29T03:58:38.280Z,0
2017-12-29T03:59:47.911Z,0
2017-12-29T04:00:58.017Z,0
2017-12-29T04:02:07.859Z,0
2017-12-29T04:03:17.948Z,0
2017-12-29T04:04:28.172Z,0
2017-12-29T04:05:38.275Z,0
2017-12-29T04:06:48.385Z,0
2017-12-29T04:07:58.477Z,0
2017-12-29T04:09:08.604Z,0
2017-12-29T04:10:18.705Z,0
2017-12-29T04:11:28.525Z,0
2017-12-29T04:12:38.374Z,0
2017-12-29T04:13:48.494Z,0
2017-12-29T04:14:59.484Z,0
2017-12-29T04:16:09.335Z,0
2017-12-29T04:17:19.450Z,0
2017-12-29T04:18:29.617Z,0
2017-12-29T04:19:39.852Z,0
2017-12-29T04:20:49.974Z,0
2017-12-29T04:21:59.824Z,0
2017-12-29T04:23:09.673Z,0
2017-12-29T04:24:19.532Z,0
2017-12-29T04:25:29.646Z,0
2017-12-29T04:26:39.772Z,0
2017-12-29T04:27:49.908Z,0
2017-12-29T04:29:00.026Z,0
2017-12-29T04:30:10.129Z,0
2017-12-29T04:31:20.240Z,0
2017-12-29T04:32:30.348Z,0
2017-12-29T04:33:40.441Z,0
2017-12-29T04:34:50.535Z,0
2017-12-29T04:36:00.643Z,0
2017-12-29T04:37:10.738Z,0
2017-12-29T04:38:20.880Z,0
2017-12-29T04:39:30.998Z,0
2017-12-29T04:40:40.621Z,0
2017-12-29T04:41:50.754Z,0
2017-12-29T04:43:00.607Z,0
2017-12-29T04:44:10.715Z,0
2017-12-29T04:45:20.456Z,0
2017-12-29T04:46:30.686Z,0
2017-12-29T04:47:40.900Z,0
2017-12-29T04:48:51.035Z,0
2017-12-29T04:50:01.407Z,0
2017-12-29T04:51:11.085Z,0
2017-12-29T04:52:21.193Z,0
2017-12-29T04:53:31.450Z,0
2017-12-29T04:54:41.612Z,0
2017-12-29T04:55:51.843Z,0
2017-12-29T04:57:02.056Z,0
2017-12-29T04:58:12.180Z,0
2017-12-29T04:59:22.315Z,0
2017-12-29T05:00:32.409Z,0
2017-12-29T05:01:42.520Z,0
2017-12-29T05:02:53.722Z,0
2017-12-29T05:04:03.836Z,0
2017-12-29T05:05:13.946Z,0
2017-12-29T05:06:24.030Z,0
2017-12-29T05:07:33.894Z,0
2017-12-29T05:08:44.602Z,0
2017-12-29T05:09:54.704Z,0
2017-12-29T05:11:04.798Z,0
2017-12-29T05:12:14.919Z,0
2017-12-29T05:13:25.029Z,0
2017-12-29T05:14:35.131Z,0
2017-12-29T05:15:45.277Z,0
2017-12-29T05:16:55.140Z,0
2017-12-29T05:18:05.255Z,0
2017-12-29T05:19:15.409Z,0
2017-12-29T05:20:25.572Z,0
2017-12-29T05:21:35.420Z,0
2017-12-29T05:22:45.577Z,0
2017-12-29T05:23:55.422Z,0
2017-12-29T05:25:05.539Z,0
2017-12-29T05:26:15.405Z,0
2017-12-29T05:27:25.487Z,0
2017-12-29T05:28:35.586Z,0
2017-12-29T05:29:45.694Z,0
2017-12-29T05:30:55.797Z,0
2017-12-29T05:32:05.909Z,0
2017-12-29T05:33:16.092Z,0
2017-12-29T05:34:25.982Z,0
2017-12-29T05:35:35.845Z,0
2017-12-29T05:36:45.432Z,0
2017-12-29T05:37:55.595Z,0
2017-12-29T05:39:05.723Z,0
2017-12-29T05:40:15.892Z,0
2017-12-29T05:41:25.998Z,0
2017-12-29T05:42:36.100Z,0
2017-12-29T05:43:46.232Z,0
2017-12-29T05:44:56.354Z,0
2017-12-29T05:46:06.512Z,0
2017-12-29T05:47:16.371Z,0
2017-12-29T05:48:25.959Z,0
2017-12-29T05:49:36.072Z,0
2017-12-29T05:50:47.155Z,0
2017-12-29T05:51:57.260Z,0
2017-12-29T05:53:07.452Z,0
2017-12-29T05:54:17.574Z,0
2017-12-29T05:55:27.844Z,0
2017-12-29T05:56:38.046Z,0
2017-12-29T05:57:48.164Z,0
2017-12-29T05:58:58.287Z,0
2017-12-29T06:00:08.424Z,0
2017-12-29T06:01:18.350Z,0
2017-12-29T06:02:28.509Z,0
2017-12-29T06:03:38.602Z,0
2017-12-29T06:04:48.712Z,0
2017-12-29T06:05:58.639Z,0
2017-12-29T06:07:08.519Z,0
2017-12-29T06:08:18.301Z,0
2017-12-29T06:09:28.169Z,0
2017-12-29T06:10:38.284Z,0
2017-12-29T06:11:48.476Z,0
2017-12-29T06:12:59.621Z,0
2017-12-29T06:14:09.864Z,0
2017-12-29T06:15:20.052Z,0
2017-12-29T06:16:30.157Z,0
2017-12-29T06:17:40.254Z,0
2017-12-29T06:18:50.088Z,0
2017-12-29T06:20:00.194Z,0
2017-12-29T06:21:10.328Z,0
2017-12-29T06:22:20.453Z,0
2017-12-29T06:23:30.567Z,0
2017-12-29T06:24:40.693Z,0
2017-12-29T06:25:50.789Z,0
2017-12-29T06:27:01.025Z,0
2017-12-29T06:28:11.144Z,0
2017-12-29T06:29:21.417Z,0
2017-12-29T06:30:31.301Z,0
2017-12-29T06:31:41.421Z,0
2017-12-29T06:32:51.549Z,0
2017-12-29T06:34:01.694Z,0
2017-12-29T06:35:11.817Z,0
2017-12-29T06:36:21.929Z,0
2017-12-29T06:37:32.080Z,0
2017-12-29T06:38:41.570Z,0
2017-12-29T06:39:51.545Z,0
2017-12-29T06:41:01.670Z,0
2017-12-29T06:42:11.573Z,0
2017-12-29T06:43:21.714Z,0
2017-12-29T06:44:31.907Z,4
2017-12-29T06:45:42.027Z,4
2017-12-29T06:46:52.180Z,0
2017-12-29T06:48:02.350Z,4
2017-12-29T06:49:12.463Z,0
2017-12-29T06:50:22.551Z,4
2017-12-29T06:51:32.402Z,4
2017-12-29T06:52:42.526Z,4
2017-12-29T06:53:52.614Z,8
2017-12-29T06:55:02.758Z,12
2017-12-29T06:56:12.946Z,12
2017-12-29T06:57:24.074Z,16
2017-12-29T06:58:34.168Z,16
2017-12-29T06:59:44.324Z,20
2017-12-29T07:00:54.157Z,20
2017-12-29T07:02:04.244Z,24
2017-12-29T07:03:14.365Z,32
2017-12-29T07:04:24.515Z,36
2017-12-29T07:05:34.621Z,44
2017-12-29T07:06:44.599Z,52
2017-12-29T07:07:54.834Z,60
2017-12-29T07:09:05.054Z,72
2017-12-29T07:10:14.957Z,80
2017-12-29T07:11:25.074Z,88
2017-12-29T07:12:35.195Z,100
2017-12-29T07:13:45.064Z,112
2017-12-29T07:14:55.274Z,124
2017-12-29T07:16:05.414Z,144
2017-12-29T07:17:15.182Z,168
2017-12-29T07:18:25.347Z,188
2017-12-29T07:19:35.472Z,212
2017-12-29T07:20:45.689Z,228
2017-12-29T07:21:56.859Z,248
2017-12-29T07:23:06.987Z,272
2017-12-29T07:24:17.087Z,288
2017-12-29T07:25:27.198Z,316
2017-12-29T07:26:37.440Z,340
2017-12-29T07:27:47.626Z,368
2017-12-29T07:28:57.826Z,396
2017-12-29T07:30:07.772Z,424
2017-12-29T07:31:17.619Z,460
2017-12-29T07:32:27.722Z,500
2017-12-29T07:33:37.876Z,544
2017-12-29T07:34:47.716Z,592
2017-12-29T07:35:57.830Z,652
2017-12-29T07:37:07.976Z,712
2017-12-29T07:38:17.828Z,776
2017-12-29T07:39:27.917Z,844
2017-12-29T07:40:38.108Z,892
2017-12-29T07:41:47.964Z,948
2017-12-29T07:42:58.096Z,1016
2017-12-29T07:44:08.280Z,1076
2017-12-29T07:45:18.427Z,1136
2017-12-29T07:46:28.645Z,1192
2017-12-29T07:47:38.569Z,1224
2017-12-29T07:48:48.741Z,1248
2017-12-29T07:49:58.932Z,1284
2017-12-29T07:51:09.202Z,1312
2017-12-29T07:52:19.364Z,1340
2017-12-29T07:53:29.245Z,1372
2017-12-29T07:54:39.381Z,1424
2017-12-29T07:55:49.565Z,1468
2017-12-29T07:57:00.640Z,1500
2017-12-29T07:58:10.774Z,1512
2017-12-29T07:59:20.879Z,1512
2017-12-29T08:00:31.013Z,1476
2017-12-29T08:01:41.202Z,1428
2017-12-29T08:02:51.341Z,1380
2017-12-29T08:04:01.498Z,1392
2017-12-29T08:05:11.487Z,1452
2017-12-29T08:06:21.622Z,1472
2017-12-29T08:07:31.831Z,1432
2017-12-29T08:08:41.931Z,1412
2017-12-29T08:09:52.124Z,1424
2017-12-29T08:11:02.292Z,1416
2017-12-29T08:12:12.051Z,1432
2017-12-29T08:13:22.161Z,1460
2017-12-29T08:14:32.281Z,1416
2017-12-29T08:15:42.423Z,1388
2017-12-29T08:16:52.286Z,1420
2017-12-29T08:18:02.391Z,1420
2017-12-29T08:19:12.625Z,1376
2017-12-29T08:20:22.778Z,1356
2017-12-29T08:21:33.045Z,1424
2017-12-29T08:22:43.220Z,1516
2017-12-29T08:23:53.419Z,1612
2017-12-29T08:25:03.641Z,1680
2017-12-29T08:26:13.753Z,1620
2017-12-29T08:27:23.649Z,1524
2017-12-29T08:28:33.835Z,1612
2017-12-29T08:29:43.947Z,1784
2017-12-29T08:30:54.175Z,1908
2017-12-29T08:32:04.395Z,1920
2017-12-29T08:33:14.272Z,1916
2017-12-29T08:34:24.497Z,1884
2017-12-29T08:35:34.660Z,1988
2017-12-29T08:36:44.775Z,2180
2017-12-29T08:37:54.673Z,2296
2017-12-29T08:39:04.842Z,2340
2017-12-29T08:40:15.013Z,2404
2017-12-29T08:41:25.120Z,2316
2017-12-29T08:42:35.561Z,2280
2017-12-29T08:43:45.691Z,2232
2017-12-29T08:44:55.550Z,2260
2017-12-29T08:46:05.698Z,2468
2017-12-29T08:47:15.937Z,2368
2017-12-29T08:48:25.802Z,2128
2017-12-29T08:49:35.893Z,2116
2017-12-29T08:50:46.025Z,2168
2017-12-29T08:51:56.140Z,2264
2017-12-29T08:53:06.119Z,2348
2017-12-29T08:54:16.004Z,2664
2017-12-29T08:55:27.101Z,2692
2017-12-29T08:56:37.238Z,2680
2017-12-29T08:57:47.092Z,2680
2017-12-29T08:58:57.218Z,2944
2017-12-29T09:00:07.142Z,3064
2017-12-29T09:01:17.275Z,3040
2017-12-29T09:02:27.157Z,3076
2017-12-29T09:03:37.278Z,3116
2017-12-29T09:04:47.387Z,3404
2017-12-29T09:05:57.314Z,3684
2017-12-29T09:07:07.238Z,3904
2017-12-29T09:08:17.371Z,4412
2017-12-29T09:09:27.458Z,4684
2017-12-29T09:10:37.626Z,5040
2017-12-29T09:11:47.737Z,5672
2017-12-29T09:12:57.589Z,5520
2017-12-29T09:14:07.720Z,5508
2017-12-29T09:15:17.849Z,5348
2017-12-29T09:16:28.056Z,5288
2017-12-29T09:17:37.906Z,5332
2017-12-29T09:18:48.131Z,5684
2017-12-29T09:19:58.264Z,5580
2017-12-29T09:21:08.372Z,4916
2017-12-29T09:22:18.511Z,4600
2017-12-29T09:23:28.367Z,4020
2017-12-29T09:24:38.556Z,3528
2017-12-29T09:25:48.772Z,3280
2017-12-29T09:26:58.912Z,3452
2017-12-29T09:28:09.022Z,4180
2017-12-29T09:29:18.972Z,4992
2017-12-29T09:30:29.235Z,5472
2017-12-29T09:31:39.434Z,6088
2017-12-29T09:32:50.280Z,5792
2017-12-29T09:34:00.438Z,5832
2017-12-29T09:35:10.590Z,5792
2017-12-29T09:36:20.446Z,5688
2017-12-29T09:37:30.570Z,5588
2017-12-29T09:38:40.708Z,7184
2017-12-29T09:39:50.841Z,7172
2017-12-29T09:41:00.947Z,7808
2017-12-29T09:42:10.887Z,7952
2017-12-29T09:43:21.042Z,8412
2017-12-29T09:44:31.193Z,8428
2017-12-29T09:45:41.317Z,8336
2017-12-29T09:46:51.446Z,8504
2017-12-29T09:48:01.322Z,8988
2017-12-29T09:49:11.453Z,10052
2017-12-29T09:50:21.605Z,9444
2017-12-29T09:51:31.785Z,8896
2017-12-29T09:52:41.948Z,8832
2017-12-29T09:53:52.281Z,9164
2017-12-29T09:55:02.422Z,9172
2017-12-29T09:56:12.442Z,10452
2017-12-29T09:57:22.594Z,10668
2017-12-29T09:58:32.714Z,10008
2017-12-29T09:59:42.847Z,9452
2017-12-29T10:00:53.011Z,10048
2017-12-29T10:02:03.343Z,11208
2017-12-29T10:03:13.608Z,11592
2017-12-29T10:04:23.771Z,11812
2017-12-29T10:05:33.968Z,12580
2017-12-29T10:06:43.910Z,12720
2017-12-29T10:07:53.754Z,17120
2017-12-29T10:09:04.144Z,20064
2017-12-29T10:10:13.995Z,19136
2017-12-29T10:11:24.141Z,16672
2017-12-29T10:12:34.344Z,15936
2017-12-29T10:13:44.484Z,16000
2017-12-29T10:14:54.630Z,20288
2017-12-29T10:16:04.785Z,25056
2017-12-29T10:17:14.924Z,6332
2017-12-29T10:18:25.049Z,6096
2017-12-29T10:19:34.928Z,7780
2017-12-29T10:20:45.069Z,10068
2017-12-29T10:21:55.233Z,28416
2017-12-29T10:23:05.094Z,26400
2017-12-29T10:24:14.994Z,27936
2017-12-29T10:25:25.137Z,28928
2017-12-29T10:26:35.059Z,23392
2017-12-29T10:27:45.279Z,27552
2017-12-29T10:28:55.491Z,28736
2017-12-29T10:30:05.562Z,29024
2017-12-29T10:31:15.490Z,29728
2017-12-29T10:32:25.632Z,30080
2017-12-29T10:33:35.521Z,29120
2017-12-29T10:34:46.647Z,28480
2017-12-29T10:35:56.851Z,29824
2017-12-29T10:37:07.107Z,29376
2017-12-29T10:38:18.039Z,28992
2017-12-29T10:39:28.020Z,28128
2017-12-29T10:40:38.192Z,28000
2017-12-29T10:41:48.410Z,29504
2017-12-29T10:42:58.566Z,31040
2017-12-29T10:44:08.872Z,30208
2017-12-29T10:45:19.043Z,28992
2017-12-29T10:46:29.217Z,30144
2017-12-29T10:47:39.342Z,29984
2017-12-29T10:48:49.504Z,27488
2017-12-29T10:49:59.630Z,22848
2017-12-29T10:51:09.785Z,23104
2017-12-29T10:52:20.020Z,22912
2017-12-29T10:53:30.188Z,19424
2017-12-29T10:54:40.383Z,21056
2017-12-29T10:55:50.595Z,16864
2017-12-29T10:57:00.742Z,19328
2017-12-29T10:58:11.001Z,11280
2017-12-29T10:59:21.180Z,10888
2017-12-29T11:00:31.071Z,9804
2017-12-29T11:01:41.213Z,10024
2017-12-29T11:02:52.334Z,8908
2017-12-29T11:04:01.970Z,11560
2017-12-29T11:05:11.899Z,9600
2017-12-29T11:06:22.215Z,10336
2017-12-29T11:07:32.382Z,12580
2017-12-29T11:08:42.602Z,23904
2017-12-29T11:09:52.864Z,13104
2017-12-29T11:11:03.021Z,20160
2017-12-29T11:12:13.186Z,28736
2017-12-29T11:13:22.964Z,33216
2017-12-29T11:14:32.888Z,35040
2017-12-29T11:15:42.908Z,35840
2017-12-29T11:16:52.689Z,34848
2017-12-29T11:18:02.603Z,35680
2017-12-29T11:19:12.731Z,19200
2017-12-29T11:20:22.867Z,22560
2017-12-29T11:21:33.030Z,26464
2017-12-29T11:22:42.890Z,29312
2017-12-29T11:23:52.804Z,33856
2017-12-29T11:25:02.951Z,28512
2017-12-29T11:26:13.151Z,24160
2017-12-29T11:27:23.285Z,25792
2017-12-29T11:28:33.503Z,21504
2017-12-29T11:29:43.285Z,20160
2017-12-29T11:30:54.407Z,17632
2017-12-29T11:32:04.559Z,14272
2017-12-29T11:33:14.731Z,13092
2017-12-29T11:34:24.872Z,12652
2017-12-29T11:35:35.039Z,12752
2017-12-29T11:36:45.178Z,11152
2017-12-29T11:37:55.384Z,9328
2017-12-29T11:39:05.507Z,8552
2017-12-29T11:40:15.688Z,7820
2017-12-29T11:41:25.987Z,7276
2017-12-29T11:42:36.130Z,7152
2017-12-29T11:43:46.026Z,7056
2017-12-29T11:44:56.228Z,7272
2017-12-29T11:46:06.351Z,7840
2017-12-29T11:47:16.466Z,8060
2017-12-29T11:48:26.655Z,8132
2017-12-29T11:49:36.665Z,8276
2017-12-29T11:50:47.193Z,8132
2017-12-29T11:51:57.346Z,7900
2017-12-29T11:53:07.275Z,7728
2017-12-29T11:54:17.435Z,7540
2017-12-29T11:55:27.573Z,7308
2017-12-29T11:56:37.787Z,7008
2017-12-29T11:57:47.967Z,6912
2017-12-29T11:58:58.207Z,6920
2017-12-29T12:00:08.079Z,6776
2017-12-29T12:01:18.203Z,6676
2017-12-29T12:02:28.366Z,6664
2017-12-29T12:03:38.501Z,6540
2017-12-29T12:04:48.619Z,6468
2017-12-29T12:05:58.791Z,6392
2017-12-29T12:07:08.941Z,6324
2017-12-29T12:08:19.170Z,6224
2017-12-29T12:09:29.053Z,6172
2017-12-29T12:10:39.194Z,6124
2017-12-29T12:11:49.353Z,6072
2017-12-29T12:12:59.538Z,6016
2017-12-29T12:14:09.694Z,5976
2017-12-29T12:15:19.911Z,5924
2017-12-29T12:16:30.201Z,5868
2017-12-29T12:17:40.351Z,5812
2017-12-29T12:18:49.862Z,5764
2017-12-29T12:19:59.978Z,5708
2017-12-29T12:21:10.142Z,5624
2017-12-29T12:22:20.318Z,5548
2017-12-29T12:23:30.216Z,5476
2017-12-29T12:24:40.393Z,5436
2017-12-29T12:25:50.035Z,5400
2017-12-29T12:27:00.232Z,5316
2017-12-29T12:28:10.393Z,5244
2017-12-29T12:29:21.526Z,5176
2017-12-29T12:30:31.817Z,5116
2017-12-29T12:31:41.465Z,5064
2017-12-29T12:32:51.712Z,5000
2017-12-29T12:34:01.920Z,4952
2017-12-29T12:35:12.076Z,4944
2017-12-29T12:36:22.259Z,4940
2017-12-29T12:37:32.648Z,4896
2017-12-29T12:38:42.516Z,4848
2017-12-29T12:39:52.673Z,4816
2017-12-29T12:41:02.930Z,4788
2017-12-29T12:42:13.064Z,4732
2017-12-29T12:43:23.293Z,4640
2017-12-29T12:44:33.324Z,4556
2017-12-29T12:45:43.669Z,4468
2017-12-29T12:46:53.828Z,4392
2017-12-29T12:48:04.112Z,4340
2017-12-29T12:49:14.319Z,4276
2017-12-29T12:50:24.496Z,4188
2017-12-29T12:51:34.671Z,4160
2017-12-29T12:52:45.794Z,4136
2017-12-29T12:53:55.718Z,4116
2017-12-29T12:55:05.953Z,4108
2017-12-29T12:56:15.803Z,4112
2017-12-29T12:57:25.661Z,4092
2017-12-29T12:58:36.028Z,4032
2017-12-29T12:59:46.203Z,3976
2017-12-29T13:00:56.591Z,3952
2017-12-29T13:02:06.731Z,3948
2017-12-29T13:03:16.721Z,3936
2017-12-29T13:04:26.838Z,3896
2017-12-29T13:05:36.710Z,3848
2017-12-29T13:06:46.903Z,3800
2017-12-29T13:07:57.028Z,3764
2017-12-29T13:09:07.180Z,3712
2017-12-29T13:10:17.023Z,3660
2017-12-29T13:11:27.040Z,3596
2017-12-29T13:12:37.273Z,3540
2017-12-29T13:13:47.409Z,3488
2017-12-29T13:14:57.265Z,3440
2017-12-29T13:16:07.571Z,3404
2017-12-29T13:17:17.786Z,3372
2017-12-29T13:18:27.928Z,3344
2017-12-29T13:19:38.131Z,3328
2017-12-29T13:20:48.004Z,3304
2017-12-29T13:21:58.166Z,3272
2017-12-29T13:23:08.041Z,3236
2017-12-29T13:24:18.258Z,3200
2017-12-29T13:25:28.391Z,3172
2017-12-29T13:26:38.534Z,3148
2017-12-29T13:27:48.727Z,3132
2017-12-29T13:28:58.614Z,3104
2017-12-29T13:30:08.765Z,3076
2017-12-29T13:31:18.649Z,3040
2017-12-29T13:32:28.443Z,3004
2017-12-29T13:33:38.574Z,2960
2017-12-29T13:34:48.759Z,2916
2017-12-29T13:35:58.928Z,2872
2017-12-29T13:37:09.073Z,2828
2017-12-29T13:38:19.257Z,2784
2017-12-29T13:39:29.443Z,2740
2017-12-29T13:40:39.614Z,2700
2017-12-29T13:41:49.559Z,2664
2017-12-29T13:42:59.739Z,2632
2017-12-29T13:44:09.895Z,2600
2017-12-29T13:45:19.596Z,2572
2017-12-29T13:46:29.210Z,2544
2017-12-29T13:47:39.332Z,2512
2017-12-29T13:48:49.460Z,2492
2017-12-29T13:49:59.623Z,2472
2017-12-29T13:51:09.871Z,2452
2017-12-29T13:52:20.057Z,2428
2017-12-29T13:53:30.234Z,2412
2017-12-29T13:54:40.519Z,2400
2017-12-29T13:55:50.703Z,2388
2017-12-29T13:57:00.877Z,2364
2017-12-29T13:58:11.041Z,2340
2017-12-29T13:59:21.500Z,2312
2017-12-29T14:00:31.633Z,2288
2017-12-29T14:01:41.775Z,2264
2017-12-29T14:02:52.019Z,2232
2017-12-29T14:04:02.283Z,2188
2017-12-29T14:05:12.177Z,2156
2017-12-29T14:06:22.334Z,2132
2017-12-29T14:07:32.458Z,2104
2017-12-29T14:08:42.611Z,2076
2017-12-29T14:09:52.767Z,2052
2017-12-29T14:11:03.628Z,2028
2017-12-29T14:12:13.483Z,2004
2017-12-29T14:13:23.601Z,1976
2017-12-29T14:14:33.564Z,1940
2017-12-29T14:15:43.700Z,1900
2017-12-29T14:16:53.838Z,1868
2017-12-29T14:18:04.004Z,1840
2017-12-29T14:19:14.202Z,1816
2017-12-29T14:20:24.450Z,1784
2017-12-29T14:21:35.555Z,1752
2017-12-29T14:22:45.678Z,1708
2017-12-29T14:23:55.934Z,1656
2017-12-29T14:25:06.194Z,1600
2017-12-29T14:26:16.081Z,1528
2017-12-29T14:27:26.206Z,1460
2017-12-29T14:28:36.070Z,1420
2017-12-29T14:29:46.196Z,1372
2017-12-29T14:30:56.388Z,1324
2017-12-29T14:32:06.597Z,1264
2017-12-29T14:33:16.734Z,1228
2017-12-29T14:34:26.942Z,1204
2017-12-29T14:35:37.066Z,1148
2017-12-29T14:36:47.214Z,1084
2017-12-29T14:37:57.333Z,1028
2017-12-29T14:39:07.473Z,976
2017-12-29T14:40:17.722Z,940
2017-12-29T14:41:28.602Z,908
2017-12-29T14:42:38.484Z,876
2017-12-29T14:43:48.622Z,844
2017-12-29T14:44:58.765Z,816
2017-12-29T14:46:08.963Z,780
2017-12-29T14:47:19.101Z,748
2017-12-29T14:48:29.224Z,716
2017-12-29T14:49:40.337Z,688
2017-12-29T14:50:50.639Z,652
2017-12-29T14:52:00.798Z,620
2017-12-29T14:53:10.651Z,588
2017-12-29T14:54:20.817Z,556
2017-12-29T14:55:30.977Z,532
2017-12-29T14:56:41.140Z,500
2017-12-29T14:57:51.394Z,472
2017-12-29T14:59:01.239Z,444
2017-12-29T15:00:11.473Z,420
2017-12-29T15:01:21.109Z,396
2017-12-29T15:02:32.310Z,368
2017-12-29T15:03:42.553Z,340
2017-12-29T15:04:52.687Z,316
2017-12-29T15:06:02.376Z,296
2017-12-29T15:07:12.523Z,268
2017-12-29T15:08:22.642Z,252
2017-12-29T15:09:32.767Z,228
2017-12-29T15:10:42.707Z,208
2017-12-29T15:11:52.593Z,192
2017-12-29T15:13:02.820Z,172
2017-12-29T15:14:13.066Z,156
2017-12-29T15:15:23.244Z,140
2017-12-29T15:16:33.383Z,128
2017-12-29T15:17:43.512Z,112
2017-12-29T15:18:53.644Z,100
2017-12-29T15:20:03.497Z,88
2017-12-29T15:21:13.602Z,76
2017-12-29T15:22:23.758Z,64
2017-12-29T15:23:33.975Z,56
2017-12-29T15:24:44.207Z,48
2017-12-29T15:25:54.359Z,44
2017-12-29T15:27:04.504Z,36
2017-12-29T15:28:14.730Z,28
2017-12-29T15:29:24.944Z,24
2017-12-29T15:30:35.196Z,20
2017-12-29T15:31:45.381Z,16
2017-12-29T15:32:55.624Z,12
2017-12-29T15:34:05.905Z,12
2017-12-29T15:35:15.880Z,8
2017-12-29T15:36:26.006Z,8
2017-12-29T15:37:36.468Z,4
2017-12-29T15:38:46.836Z,4
2017-12-29T15:39:57.042Z,4
2017-12-29T15:41:06.923Z,4
2017-12-29T15:42:17.397Z,4
2017-12-29T15:43:27.788Z,4
2017-12-29T15:44:38.594Z,0
2017-12-29T15:45:49.948Z,4
2017-12-29T15:47:00.143Z,4
2017-12-29T15:48:10.169Z,4
2017-12-29T15:49:20.191Z,0
2017-12-29T15:50:30.388Z,0
2017-12-29T15:51:41.029Z,0
2017-12-29T15:52:51.276Z,0
2017-12-29T15:54:01.162Z,0
2017-12-29T15:55:13.342Z,0
2017-12-29T15:56:23.674Z,0
2017-12-29T15:57:33.857Z,0
2017-12-29T15:58:43.893Z,0
2017-12-29T15:59:54.111Z,0
2017-12-29T16:01:05.067Z,0
2017-12-29T16:02:15.350Z,0
2017-12-29T16:03:25.836Z,0
2017-12-29T16:04:35.696Z,0
2017-12-29T16:05:45.835Z,0
2017-12-29T16:06:55.991Z,0
2017-12-29T16:08:06.955Z,0
2017-12-29T16:09:17.096Z,0
2017-12-29T16:10:27.241Z,0
2017-12-29T16:11:37.383Z,0
2017-12-29T16:12:47.599Z,0
2017-12-29T16:13:58.787Z,0
2017-12-29T16:15:08.984Z,0
2017-12-29T16:16:19.182Z,0
2017-12-29T16:17:29.392Z,0
2017-12-29T16:18:39.633Z,0
2017-12-29T16:19:49.854Z,0
2017-12-29T16:21:00.032Z,0